sensor_id;sensor_type;location;lat;lon;timestamp;temperature;humidity
17146;DHT22;8688;54.444;18.444;2023-03-14T00:01:09;8.60;99.90
17146;DHT22;8688;54.444;18.444;2023-03-14T00:03:37;8.60;99.90
17146;DHT22;8688;54.444;18.444;2023-03-14T00:06:06;8.60;99.90
17146;DHT22;8688;54.444;18.444;2023-03-14T00:08:33;8.60;99.90
17146;DHT22;8688;54.444;18.444;2023-03-14T00:11:05;8.60;99.90
17146;DHT22;8688;54.444;18.444;2023-03-14T00:13:33;8.60;99.90
17146;DHT22;8688;54.444;18.444;2023-03-14T00:16:07;8.60;99.90
17146;DHT22;8688;54.444;18.444;2023-03-14T00:18:35;8.60;99.90
17146;DHT22;8688;54.444;18.444;2023-03-14T00:21:04;8.60;99.90
17146;DHT22;8688;54.444;18.444;2023-03-14T00:23:34;8.60;99.90
17146;DHT22;8688;54.444;18.444;2023-03-14T00:26:03;8.60;99.90
17146;DHT22;8688;54.444;18.444;2023-03-14T00:28:31;8.60;99.90
17146;DHT22;8688;54.444;18.444;2023-03-14T00:30:58;8.60;99.90
17146;DHT22;8688;54.444;18.444;2023-03-14T00:33:27;8.60;99.90
17146;DHT22;8688;54.444;18.444;2023-03-14T00:35:56;8.60;99.90
17146;DHT22;8688;54.444;18.444;2023-03-14T00:38:24;8.60;99.90
17146;DHT22;8688;54.444;18.444;2023-03-14T00:40:52;8.60;99.90
17146;DHT22;8688;54.444;18.444;2023-03-14T00:43:20;8.60;99.90
17146;DHT22;8688;54.444;18.444;2023-03-14T00:45:49;8.60;99.90
17146;DHT22;8688;54.444;18.444;2023-03-14T00:48:16;8.70;99.90
17146;DHT22;8688;54.444;18.444;2023-03-14T00:50:46;8.60;99.90
17146;DHT22;8688;54.444;18.444;2023-03-14T00:53:13;8.60;99.90
17146;DHT22;8688;54.444;18.444;2023-03-14T00:55:42;8.60;99.90
17146;DHT22;8688;54.444;18.444;2023-03-14T00:58:10;8.60;99.90
17146;DHT22;8688;54.444;18.444;2023-03-14T01:00:39;8.70;99.90
17146;DHT22;8688;54.444;18.444;2023-03-14T01:03:07;8.70;99.90
17146;DHT22;8688;54.444;18.444;2023-03-14T01:05:35;8.60;99.90
17146;DHT22;8688;54.444;18.444;2023-03-14T01:08:05;8.70;99.90
17146;DHT22;8688;54.444;18.444;2023-03-14T01:10:34;8.70;99.90
17146;DHT22;8688;54.444;18.444;2023-03-14T01:13:02;8.70;99.90
17146;DHT22;8688;54.444;18.444;2023-03-14T01:15:29;8.70;99.90
17146;DHT22;8688;54.444;18.444;2023-03-14T01:17:56;8.70;99.90
17146;DHT22;8688;54.444;18.444;2023-03-14T01:20:24;8.80;99.90
17146;DHT22;8688;54.444;18.444;2023-03-14T01:22:51;8.70;99.90
17146;DHT22;8688;54.444;18.444;2023-03-14T01:25:20;8.70;99.90
17146;DHT22;8688;54.444;18.444;2023-03-14T01:27:48;8.70;99.90
17146;DHT22;8688;54.444;18.444;2023-03-14T01:30:15;8.70;99.90
17146;DHT22;8688;54.444;18.444;2023-03-14T01:32:43;8.70;99.90
17146;DHT22;8688;54.444;18.444;2023-03-14T01:35:10;8.70;99.90
17146;DHT22;8688;54.444;18.444;2023-03-14T01:37:38;8.70;99.90
17146;DHT22;8688;54.444;18.444;2023-03-14T01:40:06;8.70;99.90
17146;DHT22;8688;54.444;18.444;2023-03-14T01:42:35;8.70;99.90
17146;DHT22;8688;54.444;18.444;2023-03-14T01:45:03;8.60;99.90
17146;DHT22;8688;54.444;18.444;2023-03-14T01:47:31;8.70;99.90
17146;DHT22;8688;54.444;18.444;2023-03-14T01:50:01;8.70;99.90
17146;DHT22;8688;54.444;18.444;2023-03-14T01:52:34;8.60;99.90
17146;DHT22;8688;54.444;18.444;2023-03-14T01:55:05;8.60;99.90
17146;DHT22;8688;54.444;18.444;2023-03-14T01:57:37;8.60;99.90
17146;DHT22;8688;54.444;18.444;2023-03-14T02:00:09;8.60;99.90
17146;DHT22;8688;54.444;18.444;2023-03-14T02:02:41;8.60;99.90
17146;DHT22;8688;54.444;18.444;2023-03-14T02:05:13;8.60;99.90
17146;DHT22;8688;54.444;18.444;2023-03-14T02:07:46;8.60;99.90
17146;DHT22;8688;54.444;18.444;2023-03-14T02:10:15;8.50;99.90
17146;DHT22;8688;54.444;18.444;2023-03-14T02:12:46;8.50;99.90
17146;DHT22;8688;54.444;18.444;2023-03-14T02:15:14;8.50;99.90
17146;DHT22;8688;54.444;18.444;2023-03-14T02:17:43;8.50;99.90
17146;DHT22;8688;54.444;18.444;2023-03-14T02:20:22;8.40;99.90
17146;DHT22;8688;54.444;18.444;2023-03-14T02:22:52;8.40;99.90
17146;DHT22;8688;54.444;18.444;2023-03-14T02:25:24;8.40;99.90
17146;DHT22;8688;54.444;18.444;2023-03-14T02:27:56;8.40;99.90
17146;DHT22;8688;54.444;18.444;2023-03-14T02:30:26;8.40;99.90
17146;DHT22;8688;54.444;18.444;2023-03-14T02:32:57;8.40;99.90
17146;DHT22;8688;54.444;18.444;2023-03-14T02:35:28;8.40;99.90
17146;DHT22;8688;54.444;18.444;2023-03-14T02:38:01;8.30;99.90
17146;DHT22;8688;54.444;18.444;2023-03-14T02:40:30;8.40;99.90
17146;DHT22;8688;54.444;18.444;2023-03-14T02:42:58;8.40;99.90
17146;DHT22;8688;54.444;18.444;2023-03-14T02:45:39;8.40;99.90
17146;DHT22;8688;54.444;18.444;2023-03-14T02:48:17;8.40;99.90
17146;DHT22;8688;54.444;18.444;2023-03-14T02:50:47;8.40;99.90
17146;DHT22;8688;54.444;18.444;2023-03-14T02:53:18;8.40;99.90
17146;DHT22;8688;54.444;18.444;2023-03-14T02:55:47;8.40;99.90
17146;DHT22;8688;54.444;18.444;2023-03-14T02:58:17;8.40;99.90
17146;DHT22;8688;54.444;18.444;2023-03-14T03:00:45;8.40;99.90
17146;DHT22;8688;54.444;18.444;2023-03-14T03:03:13;8.40;99.90
17146;DHT22;8688;54.444;18.444;2023-03-14T03:05:41;8.40;99.90
17146;DHT22;8688;54.444;18.444;2023-03-14T03:08:09;8.30;99.90
17146;DHT22;8688;54.444;18.444;2023-03-14T03:10:37;8.30;99.90
17146;DHT22;8688;54.444;18.444;2023-03-14T03:13:05;8.30;99.90
17146;DHT22;8688;54.444;18.444;2023-03-14T03:15:34;8.30;99.90
17146;DHT22;8688;54.444;18.444;2023-03-14T03:18:01;8.20;99.90
17146;DHT22;8688;54.444;18.444;2023-03-14T03:20:29;8.20;99.90
17146;DHT22;8688;54.444;18.444;2023-03-14T03:22:56;8.20;99.90
17146;DHT22;8688;54.444;18.444;2023-03-14T03:25:25;8.10;99.90
17146;DHT22;8688;54.444;18.444;2023-03-14T03:27:53;8.10;99.90
17146;DHT22;8688;54.444;18.444;2023-03-14T03:30:20;8.10;99.90
17146;DHT22;8688;54.444;18.444;2023-03-14T03:32:49;8.10;99.90
17146;DHT22;8688;54.444;18.444;2023-03-14T03:35:17;8.10;99.90
17146;DHT22;8688;54.444;18.444;2023-03-14T03:37:44;8.10;99.90
17146;DHT22;8688;54.444;18.444;2023-03-14T03:40:12;8.10;99.90
17146;DHT22;8688;54.444;18.444;2023-03-14T03:42:39;8.20;99.90
17146;DHT22;8688;54.444;18.444;2023-03-14T03:45:08;8.10;99.90
17146;DHT22;8688;54.444;18.444;2023-03-14T03:47:35;8.10;99.90
17146;DHT22;8688;54.444;18.444;2023-03-14T03:50:05;8.10;99.90
17146;DHT22;8688;54.444;18.444;2023-03-14T03:52:33;8.10;99.90
17146;DHT22;8688;54.444;18.444;2023-03-14T03:55:00;8.10;99.90
17146;DHT22;8688;54.444;18.444;2023-03-14T03:57:28;8.10;99.90
17146;DHT22;8688;54.444;18.444;2023-03-14T03:59:55;8.10;99.90
17146;DHT22;8688;54.444;18.444;2023-03-14T04:02:23;8.10;99.90
17146;DHT22;8688;54.444;18.444;2023-03-14T04:04:50;8.10;99.90
17146;DHT22;8688;54.444;18.444;2023-03-14T04:07:19;8.10;99.90
17146;DHT22;8688;54.444;18.444;2023-03-14T04:09:46;8.10;99.90
17146;DHT22;8688;54.444;18.444;2023-03-14T04:12:14;8.10;99.90
17146;DHT22;8688;54.444;18.444;2023-03-14T04:14:41;8.20;99.90
17146;DHT22;8688;54.444;18.444;2023-03-14T04:17:09;8.20;99.90
17146;DHT22;8688;54.444;18.444;2023-03-14T04:19:37;8.20;99.90
17146;DHT22;8688;54.444;18.444;2023-03-14T04:22:04;8.20;99.90
17146;DHT22;8688;54.444;18.444;2023-03-14T04:24:33;8.20;99.90
17146;DHT22;8688;54.444;18.444;2023-03-14T04:27:01;8.20;99.90
17146;DHT22;8688;54.444;18.444;2023-03-14T04:29:28;8.20;99.90
17146;DHT22;8688;54.444;18.444;2023-03-14T04:31:56;8.30;99.90
17146;DHT22;8688;54.444;18.444;2023-03-14T04:34:23;8.20;99.90
17146;DHT22;8688;54.444;18.444;2023-03-14T04:36:51;8.20;99.90
17146;DHT22;8688;54.444;18.444;2023-03-14T04:39:18;8.20;99.90
17146;DHT22;8688;54.444;18.444;2023-03-14T04:41:47;8.20;99.90
17146;DHT22;8688;54.444;18.444;2023-03-14T04:44:14;8.20;99.90
17146;DHT22;8688;54.444;18.444;2023-03-14T04:46:42;8.20;99.90
17146;DHT22;8688;54.444;18.444;2023-03-14T04:49:09;8.20;99.90
17146;DHT22;8688;54.444;18.444;2023-03-14T04:51:37;8.10;99.90
17146;DHT22;8688;54.444;18.444;2023-03-14T04:54:05;8.10;99.90
17146;DHT22;8688;54.444;18.444;2023-03-14T04:56:32;8.10;99.90
17146;DHT22;8688;54.444;18.444;2023-03-14T04:59:01;8.10;99.90
17146;DHT22;8688;54.444;18.444;2023-03-14T05:01:29;8.10;99.90
17146;DHT22;8688;54.444;18.444;2023-03-14T05:03:56;8.10;99.90
17146;DHT22;8688;54.444;18.444;2023-03-14T05:06:24;8.00;99.90
17146;DHT22;8688;54.444;18.444;2023-03-14T05:08:51;8.00;99.90
17146;DHT22;8688;54.444;18.444;2023-03-14T05:11:19;8.00;99.90
17146;DHT22;8688;54.444;18.444;2023-03-14T05:13:46;8.00;99.90
17146;DHT22;8688;54.444;18.444;2023-03-14T05:16:15;8.00;99.90
17146;DHT22;8688;54.444;18.444;2023-03-14T05:18:42;8.00;99.90
17146;DHT22;8688;54.444;18.444;2023-03-14T05:21:10;8.00;99.90
17146;DHT22;8688;54.444;18.444;2023-03-14T05:23:37;7.90;99.90
17146;DHT22;8688;54.444;18.444;2023-03-14T05:26:05;7.90;99.90
17146;DHT22;8688;54.444;18.444;2023-03-14T05:28:33;7.90;99.90
17146;DHT22;8688;54.444;18.444;2023-03-14T05:31:00;7.90;99.90
17146;DHT22;8688;54.444;18.444;2023-03-14T05:33:29;7.90;99.90
17146;DHT22;8688;54.444;18.444;2023-03-14T05:35:57;7.90;99.90
17146;DHT22;8688;54.444;18.444;2023-03-14T05:38:24;7.80;99.90
17146;DHT22;8688;54.444;18.444;2023-03-14T05:40:52;7.80;99.90
17146;DHT22;8688;54.444;18.444;2023-03-14T05:43:19;7.80;99.90
17146;DHT22;8688;54.444;18.444;2023-03-14T05:45:46;7.80;99.90
17146;DHT22;8688;54.444;18.444;2023-03-14T05:48:14;7.80;99.90
17146;DHT22;8688;54.444;18.444;2023-03-14T05:50:44;7.80;99.90
17146;DHT22;8688;54.444;18.444;2023-03-14T05:53:11;7.90;99.90
17146;DHT22;8688;54.444;18.444;2023-03-14T05:55:39;8.00;99.90
17146;DHT22;8688;54.444;18.444;2023-03-14T05:58:06;8.00;99.90
17146;DHT22;8688;54.444;18.444;2023-03-14T06:00:34;8.00;99.90
17146;DHT22;8688;54.444;18.444;2023-03-14T06:03:01;8.00;99.90
17146;DHT22;8688;54.444;18.444;2023-03-14T06:05:28;8.10;99.90
17146;DHT22;8688;54.444;18.444;2023-03-14T06:07:57;8.10;99.90
17146;DHT22;8688;54.444;18.444;2023-03-14T06:10:25;8.10;99.90
17146;DHT22;8688;54.444;18.444;2023-03-14T06:12:52;8.20;99.90
17146;DHT22;8688;54.444;18.444;2023-03-14T06:15:20;8.20;99.90
17146;DHT22;8688;54.444;18.444;2023-03-14T06:17:47;8.20;99.90
17146;DHT22;8688;54.444;18.444;2023-03-14T06:20:15;8.30;99.90
17146;DHT22;8688;54.444;18.444;2023-03-14T06:22:42;8.30;99.90
17146;DHT22;8688;54.444;18.444;2023-03-14T06:25:11;8.30;99.90
17146;DHT22;8688;54.444;18.444;2023-03-14T06:27:39;8.40;99.90
17146;DHT22;8688;54.444;18.444;2023-03-14T06:30:08;8.40;99.90
17146;DHT22;8688;54.444;18.444;2023-03-14T06:32:47;8.40;99.90
17146;DHT22;8688;54.444;18.444;2023-03-14T06:35:14;8.50;99.90
17146;DHT22;8688;54.444;18.444;2023-03-14T06:37:42;8.50;99.90
17146;DHT22;8688;54.444;18.444;2023-03-14T06:40:12;8.50;99.90
17146;DHT22;8688;54.444;18.444;2023-03-14T06:42:43;8.50;99.90
17146;DHT22;8688;54.444;18.444;2023-03-14T06:45:11;8.60;99.90
17146;DHT22;8688;54.444;18.444;2023-03-14T06:47:39;8.60;99.90
17146;DHT22;8688;54.444;18.444;2023-03-14T06:50:08;8.60;99.90
17146;DHT22;8688;54.444;18.444;2023-03-14T06:52:35;8.70;99.90
17146;DHT22;8688;54.444;18.444;2023-03-14T06:55:04;8.70;99.90
17146;DHT22;8688;54.444;18.444;2023-03-14T06:57:33;8.70;99.90
17146;DHT22;8688;54.444;18.444;2023-03-14T07:00:00;8.80;99.90
17146;DHT22;8688;54.444;18.444;2023-03-14T07:02:27;8.80;99.90
17146;DHT22;8688;54.444;18.444;2023-03-14T07:04:55;8.90;99.90
17146;DHT22;8688;54.444;18.444;2023-03-14T07:07:22;9.00;99.90
17146;DHT22;8688;54.444;18.444;2023-03-14T07:09:50;9.10;99.90
17146;DHT22;8688;54.444;18.444;2023-03-14T07:12:17;9.10;99.90
17146;DHT22;8688;54.444;18.444;2023-03-14T07:14:46;9.20;99.90
17146;DHT22;8688;54.444;18.444;2023-03-14T07:17:13;9.30;99.90
17146;DHT22;8688;54.444;18.444;2023-03-14T07:19:41;9.40;99.90
17146;DHT22;8688;54.444;18.444;2023-03-14T07:22:09;9.40;99.90
17146;DHT22;8688;54.444;18.444;2023-03-14T07:24:36;9.50;99.90
17146;DHT22;8688;54.444;18.444;2023-03-14T07:27:03;9.60;99.90
17146;DHT22;8688;54.444;18.444;2023-03-14T07:29:31;9.60;99.90
17146;DHT22;8688;54.444;18.444;2023-03-14T07:32:00;9.70;99.90
17146;DHT22;8688;54.444;18.444;2023-03-14T07:34:27;9.80;99.90
17146;DHT22;8688;54.444;18.444;2023-03-14T07:36:54;9.90;99.90
17146;DHT22;8688;54.444;18.444;2023-03-14T07:39:22;10.00;99.90
17146;DHT22;8688;54.444;18.444;2023-03-14T07:41:49;10.10;99.90
17146;DHT22;8688;54.444;18.444;2023-03-14T07:44:16;10.10;99.90
17146;DHT22;8688;54.444;18.444;2023-03-14T07:46:44;10.20;99.90
17146;DHT22;8688;54.444;18.444;2023-03-14T07:49:13;10.30;99.90
17146;DHT22;8688;54.444;18.444;2023-03-14T07:51:40;10.40;99.90
17146;DHT22;8688;54.444;18.444;2023-03-14T07:54:09;10.50;99.90
17146;DHT22;8688;54.444;18.444;2023-03-14T07:56:37;10.50;99.90
17146;DHT22;8688;54.444;18.444;2023-03-14T07:59:05;10.50;99.90
17146;DHT22;8688;54.444;18.444;2023-03-14T08:01:33;10.60;99.90
17146;DHT22;8688;54.444;18.444;2023-03-14T08:04:00;10.70;99.90
17146;DHT22;8688;54.444;18.444;2023-03-14T08:06:29;10.70;99.90
17146;DHT22;8688;54.444;18.444;2023-03-14T08:08:56;10.70;99.90
17146;DHT22;8688;54.444;18.444;2023-03-14T08:11:24;10.70;99.90
17146;DHT22;8688;54.444;18.444;2023-03-14T08:13:51;10.70;99.90
17146;DHT22;8688;54.444;18.444;2023-03-14T08:16:19;10.70;99.90
17146;DHT22;8688;54.444;18.444;2023-03-14T08:18:47;10.60;99.90
17146;DHT22;8688;54.444;18.444;2023-03-14T08:21:14;10.60;99.90
17146;DHT22;8688;54.444;18.444;2023-03-14T08:23:43;10.60;99.90
17146;DHT22;8688;54.444;18.444;2023-03-14T08:26:11;10.60;99.90
17146;DHT22;8688;54.444;18.444;2023-03-14T08:28:38;10.60;99.90
17146;DHT22;8688;54.444;18.444;2023-03-14T08:31:06;10.70;99.90
17146;DHT22;8688;54.444;18.444;2023-03-14T08:33:34;10.70;99.90
17146;DHT22;8688;54.444;18.444;2023-03-14T08:36:01;10.80;99.90
17146;DHT22;8688;54.444;18.444;2023-03-14T08:38:29;10.80;99.90
17146;DHT22;8688;54.444;18.444;2023-03-14T08:40:58;10.70;99.90
17146;DHT22;8688;54.444;18.444;2023-03-14T08:43:27;10.70;99.90
17146;DHT22;8688;54.444;18.444;2023-03-14T08:45:58;10.70;99.90
17146;DHT22;8688;54.444;18.444;2023-03-14T08:48:26;10.70;99.90
17146;DHT22;8688;54.444;18.444;2023-03-14T08:50:55;10.60;99.90
17146;DHT22;8688;54.444;18.444;2023-03-14T08:53:22;10.60;99.90
17146;DHT22;8688;54.444;18.444;2023-03-14T08:55:53;10.60;99.90
17146;DHT22;8688;54.444;18.444;2023-03-14T08:58:22;10.60;99.90
17146;DHT22;8688;54.444;18.444;2023-03-14T09:00:50;10.60;99.90
17146;DHT22;8688;54.444;18.444;2023-03-14T09:03:17;10.60;99.90
17146;DHT22;8688;54.444;18.444;2023-03-14T09:05:45;10.60;99.90
17146;DHT22;8688;54.444;18.444;2023-03-14T09:08:12;10.70;99.90
17146;DHT22;8688;54.444;18.444;2023-03-14T09:10:39;10.70;99.90
17146;DHT22;8688;54.444;18.444;2023-03-14T09:13:07;10.70;99.90
17146;DHT22;8688;54.444;18.444;2023-03-14T09:15:37;10.70;99.90
17146;DHT22;8688;54.444;18.444;2023-03-14T09:18:16;10.70;99.90
17146;DHT22;8688;54.444;18.444;2023-03-14T09:20:44;10.70;99.90
17146;DHT22;8688;54.444;18.444;2023-03-14T09:23:11;10.70;99.90
17146;DHT22;8688;54.444;18.444;2023-03-14T09:25:53;10.70;99.90
17146;DHT22;8688;54.444;18.444;2023-03-14T09:28:21;10.70;99.90
17146;DHT22;8688;54.444;18.444;2023-03-14T09:30:50;10.80;99.90
17146;DHT22;8688;54.444;18.444;2023-03-14T09:33:18;10.80;99.90
17146;DHT22;8688;54.444;18.444;2023-03-14T09:35:48;10.90;99.90
17146;DHT22;8688;54.444;18.444;2023-03-14T09:38:15;11.10;99.90
17146;DHT22;8688;54.444;18.444;2023-03-14T09:40:43;11.20;76.00
17146;DHT22;8688;54.444;18.444;2023-03-14T09:43:12;11.20;3.90
17146;DHT22;8688;54.444;18.444;2023-03-14T09:45:41;11.30;1.00
17146;DHT22;8688;54.444;18.444;2023-03-14T09:48:15;11.30;1.00
17146;DHT22;8688;54.444;18.444;2023-03-14T09:50:44;11.20;1.00
17146;DHT22;8688;54.444;18.444;2023-03-14T09:53:15;11.20;1.00
17146;DHT22;8688;54.444;18.444;2023-03-14T09:55:45;11.20;1.00
17146;DHT22;8688;54.444;18.444;2023-03-14T09:58:18;11.20;1.00
17146;DHT22;8688;54.444;18.444;2023-03-14T10:00:46;11.10;1.00
17146;DHT22;8688;54.444;18.444;2023-03-14T10:03:26;11.10;1.00
17146;DHT22;8688;54.444;18.444;2023-03-14T10:05:56;11.10;1.00
17146;DHT22;8688;54.444;18.444;2023-03-14T10:08:24;11.10;1.00
17146;DHT22;8688;54.444;18.444;2023-03-14T10:10:52;11.10;1.00
17146;DHT22;8688;54.444;18.444;2023-03-14T10:13:21;11.20;1.00
17146;DHT22;8688;54.444;18.444;2023-03-14T10:15:53;11.20;1.00
17146;DHT22;8688;54.444;18.444;2023-03-14T10:18:22;11.20;1.00
17146;DHT22;8688;54.444;18.444;2023-03-14T10:21:03;11.40;1.00
17146;DHT22;8688;54.444;18.444;2023-03-14T10:23:32;11.50;1.00
17146;DHT22;8688;54.444;18.444;2023-03-14T10:26:08;11.60;1.00
17146;DHT22;8688;54.444;18.444;2023-03-14T10:28:42;11.70;1.00
17146;DHT22;8688;54.444;18.444;2023-03-14T10:31:10;11.70;1.00
17146;DHT22;8688;54.444;18.444;2023-03-14T10:33:38;11.80;1.00
17146;DHT22;8688;54.444;18.444;2023-03-14T10:36:21;11.80;1.00
17146;DHT22;8688;54.444;18.444;2023-03-14T10:38:57;11.80;1.00
17146;DHT22;8688;54.444;18.444;2023-03-14T10:41:27;11.70;1.00
17146;DHT22;8688;54.444;18.444;2023-03-14T10:43:59;11.60;1.00
17146;DHT22;8688;54.444;18.444;2023-03-14T10:46:30;11.50;1.00
17146;DHT22;8688;54.444;18.444;2023-03-14T10:48:58;11.50;1.00
17146;DHT22;8688;54.444;18.444;2023-03-14T10:51:28;11.40;1.00
17146;DHT22;8688;54.444;18.444;2023-03-14T10:53:58;11.40;1.00
17146;DHT22;8688;54.444;18.444;2023-03-14T10:56:27;11.40;1.00
17146;DHT22;8688;54.444;18.444;2023-03-14T10:58:56;11.30;1.00
17146;DHT22;8688;54.444;18.444;2023-03-14T11:01:33;11.40;1.00
17146;DHT22;8688;54.444;18.444;2023-03-14T11:04:20;11.50;1.00
17146;DHT22;8688;54.444;18.444;2023-03-14T11:06:56;11.50;1.00
17146;DHT22;8688;54.444;18.444;2023-03-14T11:09:33;11.60;1.00
17146;DHT22;8688;54.444;18.444;2023-03-14T11:12:13;11.70;1.00
17146;DHT22;8688;54.444;18.444;2023-03-14T11:14:49;11.70;1.00
17146;DHT22;8688;54.444;18.444;2023-03-14T11:17:25;11.80;1.00
17146;DHT22;8688;54.444;18.444;2023-03-14T11:20:09;11.90;1.00
17146;DHT22;8688;54.444;18.444;2023-03-14T11:22:46;12.00;1.00
17146;DHT22;8688;54.444;18.444;2023-03-14T11:25:22;12.20;1.00
17146;DHT22;8688;54.444;18.444;2023-03-14T11:27:59;12.20;1.00
17146;DHT22;8688;54.444;18.444;2023-03-14T11:30:34;12.30;1.00
17146;DHT22;8688;54.444;18.444;2023-03-14T11:33:07;12.30;1.00
17146;DHT22;8688;54.444;18.444;2023-03-14T11:35:38;12.40;1.00
17146;DHT22;8688;54.444;18.444;2023-03-14T11:38:23;12.30;1.00
17146;DHT22;8688;54.444;18.444;2023-03-14T11:40:57;12.20;1.00
17146;DHT22;8688;54.444;18.444;2023-03-14T11:43:29;12.10;1.00
17146;DHT22;8688;54.444;18.444;2023-03-14T11:46:01;12.00;1.00
17146;DHT22;8688;54.444;18.444;2023-03-14T11:48:37;11.90;1.00
17146;DHT22;8688;54.444;18.444;2023-03-14T11:51:11;11.80;1.00
17146;DHT22;8688;54.444;18.444;2023-03-14T11:53:48;11.80;1.00
17146;DHT22;8688;54.444;18.444;2023-03-14T11:56:22;11.80;1.00
17146;DHT22;8688;54.444;18.444;2023-03-14T11:58:57;11.80;1.00
17146;DHT22;8688;54.444;18.444;2023-03-14T12:01:33;11.90;1.00
17146;DHT22;8688;54.444;18.444;2023-03-14T12:04:06;12.00;1.00
17146;DHT22;8688;54.444;18.444;2023-03-14T12:06:42;12.10;1.00
17146;DHT22;8688;54.444;18.444;2023-03-14T12:09:14;12.10;1.00
17146;DHT22;8688;54.444;18.444;2023-03-14T12:11:46;12.20;99.90
17146;DHT22;8688;54.444;18.444;2023-03-14T12:14:20;12.30;99.90
17146;DHT22;8688;54.444;18.444;2023-03-14T12:16:48;12.40;99.90
17146;DHT22;8688;54.444;18.444;2023-03-14T12:19:30;12.60;99.90
17146;DHT22;8688;54.444;18.444;2023-03-14T12:22:02;12.70;99.90
17146;DHT22;8688;54.444;18.444;2023-03-14T12:24:36;12.60;99.90
17146;DHT22;8688;54.444;18.444;2023-03-14T12:27:06;12.50;1.00
17146;DHT22;8688;54.444;18.444;2023-03-14T12:29:58;12.60;99.90
17146;DHT22;8688;54.444;18.444;2023-03-14T12:32:26;12.80;99.90
17146;DHT22;8688;54.444;18.444;2023-03-14T12:34:53;13.00;1.00
17146;DHT22;8688;54.444;18.444;2023-03-14T12:37:28;13.10;1.00
17146;DHT22;8688;54.444;18.444;2023-03-14T12:40:17;13.20;1.00
17146;DHT22;8688;54.444;18.444;2023-03-14T12:42:56;13.00;99.90
17146;DHT22;8688;54.444;18.444;2023-03-14T12:45:29;13.00;1.00
17146;DHT22;8688;54.444;18.444;2023-03-14T12:48:10;13.10;1.00
17146;DHT22;8688;54.444;18.444;2023-03-14T12:50:43;13.20;1.00
17146;DHT22;8688;54.444;18.444;2023-03-14T12:53:45;13.30;1.00
17146;DHT22;8688;54.444;18.444;2023-03-14T12:56:48;13.40;99.90
17146;DHT22;8688;54.444;18.444;2023-03-14T12:59:31;13.10;1.00
17146;DHT22;8688;54.444;18.444;2023-03-14T13:02:22;12.90;1.00
17146;DHT22;8688;54.444;18.444;2023-03-14T13:04:54;12.80;1.00
17146;DHT22;8688;54.444;18.444;2023-03-14T13:08:03;12.90;1.00
17146;DHT22;8688;54.444;18.444;2023-03-14T13:10:39;12.90;1.00
17146;DHT22;8688;54.444;18.444;2023-03-14T13:13:17;12.90;9.30
17146;DHT22;8688;54.444;18.444;2023-03-14T13:15:48;13.00;1.00
17146;DHT22;8688;54.444;18.444;2023-03-14T13:18:23;13.00;1.00
17146;DHT22;8688;54.444;18.444;2023-03-14T13:20:55;13.00;1.00
17146;DHT22;8688;54.444;18.444;2023-03-14T13:23:25;13.10;1.00
17146;DHT22;8688;54.444;18.444;2023-03-14T13:25:54;13.10;1.00
17146;DHT22;8688;54.444;18.444;2023-03-14T13:28:23;13.10;99.90
17146;DHT22;8688;54.444;18.444;2023-03-14T13:30:55;12.90;99.90
17146;DHT22;8688;54.444;18.444;2023-03-14T13:33:23;12.80;99.90
17146;DHT22;8688;54.444;18.444;2023-03-14T13:35:56;12.60;99.90
17146;DHT22;8688;54.444;18.444;2023-03-14T13:38:25;12.60;99.90
17146;DHT22;8688;54.444;18.444;2023-03-14T13:40:55;12.70;99.90
17146;DHT22;8688;54.444;18.444;2023-03-14T13:43:29;12.60;99.90
17146;DHT22;8688;54.444;18.444;2023-03-14T13:46:03;12.60;99.90
17146;DHT22;8688;54.444;18.444;2023-03-14T13:48:32;12.70;1.00
17146;DHT22;8688;54.444;18.444;2023-03-14T13:51:03;12.90;75.20
17146;DHT22;8688;54.444;18.444;2023-03-14T13:53:32;13.00;54.10
17146;DHT22;8688;54.444;18.444;2023-03-14T13:56:02;13.20;1.00
17146;DHT22;8688;54.444;18.444;2023-03-14T13:58:31;13.40;1.00
17146;DHT22;8688;54.444;18.444;2023-03-14T14:01:02;13.30;99.90
17146;DHT22;8688;54.444;18.444;2023-03-14T14:03:39;13.10;99.90
17146;DHT22;8688;54.444;18.444;2023-03-14T14:11:52;13.10;99.90
17146;DHT22;8688;54.444;18.444;2023-03-14T14:14:27;13.10;57.20
17146;DHT22;8688;54.444;18.444;2023-03-14T14:16:56;13.10;10.50
17146;DHT22;8688;54.444;18.444;2023-03-14T14:19:27;13.10;1.00
17146;DHT22;8688;54.444;18.444;2023-03-14T14:21:55;13.10;1.00
17146;DHT22;8688;54.444;18.444;2023-03-14T14:24:28;13.00;1.00
17146;DHT22;8688;54.444;18.444;2023-03-14T14:27:00;13.00;1.00
17146;DHT22;8688;54.444;18.444;2023-03-14T14:29:30;12.90;1.00
17146;DHT22;8688;54.444;18.444;2023-03-14T14:32:02;12.80;1.00
17146;DHT22;8688;54.444;18.444;2023-03-14T14:34:38;12.80;1.00
17146;DHT22;8688;54.444;18.444;2023-03-14T14:37:20;12.80;1.00
17146;DHT22;8688;54.444;18.444;2023-03-14T14:39:49;12.80;1.00
17146;DHT22;8688;54.444;18.444;2023-03-14T14:42:20;12.80;1.00
17146;DHT22;8688;54.444;18.444;2023-03-14T14:44:51;12.70;1.00
17146;DHT22;8688;54.444;18.444;2023-03-14T14:47:21;12.60;1.00
17146;DHT22;8688;54.444;18.444;2023-03-14T14:49:50;12.60;1.00
17146;DHT22;8688;54.444;18.444;2023-03-14T14:52:20;12.50;1.00
17146;DHT22;8688;54.444;18.444;2023-03-14T14:54:51;12.50;1.00
17146;DHT22;8688;54.444;18.444;2023-03-14T14:57:22;12.50;1.00
17146;DHT22;8688;54.444;18.444;2023-03-14T14:59:54;12.50;1.00
17146;DHT22;8688;54.444;18.444;2023-03-14T15:02:29;12.40;1.00
17146;DHT22;8688;54.444;18.444;2023-03-14T15:04:57;12.30;1.00
17146;DHT22;8688;54.444;18.444;2023-03-14T15:07:25;12.30;1.00
17146;DHT22;8688;54.444;18.444;2023-03-14T15:09:52;12.30;1.00
17146;DHT22;8688;54.444;18.444;2023-03-14T15:12:19;12.20;1.00
17146;DHT22;8688;54.444;18.444;2023-03-14T15:14:52;12.10;1.00
17146;DHT22;8688;54.444;18.444;2023-03-14T15:17:23;11.90;1.00
17146;DHT22;8688;54.444;18.444;2023-03-14T15:19:50;11.70;1.00
17146;DHT22;8688;54.444;18.444;2023-03-14T15:22:18;11.60;99.90
17146;DHT22;8688;54.444;18.444;2023-03-14T15:24:45;11.40;21.10
17146;DHT22;8688;54.444;18.444;2023-03-14T15:27:15;11.30;1.00
17146;DHT22;8688;54.444;18.444;2023-03-14T15:29:43;11.30;1.00
17146;DHT22;8688;54.444;18.444;2023-03-14T15:32:14;11.30;99.90
17146;DHT22;8688;54.444;18.444;2023-03-14T15:34:44;11.30;99.90
17146;DHT22;8688;54.444;18.444;2023-03-14T15:37:12;11.30;99.90
17146;DHT22;8688;54.444;18.444;2023-03-14T15:39:41;11.20;1.00
17146;DHT22;8688;54.444;18.444;2023-03-14T15:42:09;11.20;99.90
17146;DHT22;8688;54.444;18.444;2023-03-14T15:44:37;11.10;1.00
17146;DHT22;8688;54.444;18.444;2023-03-14T15:47:05;11.10;1.00
17146;DHT22;8688;54.444;18.444;2023-03-14T15:49:49;11.00;99.90
17146;DHT22;8688;54.444;18.444;2023-03-14T15:52:17;10.90;1.00
17146;DHT22;8688;54.444;18.444;2023-03-14T15:54:45;10.80;1.00
17146;DHT22;8688;54.444;18.444;2023-03-14T15:57:12;10.70;1.00
17146;DHT22;8688;54.444;18.444;2023-03-14T15:59:40;10.60;1.00
17146;DHT22;8688;54.444;18.444;2023-03-14T16:02:09;10.60;1.00
17146;DHT22;8688;54.444;18.444;2023-03-14T16:04:36;10.50;1.00
17146;DHT22;8688;54.444;18.444;2023-03-14T16:07:05;10.50;1.00